Margarita Belen, Argentina
Current Conditions -  °F | °C
As of 10:00 AM on Saturday 01 Nov 2014 (Local Time) from SARE Reporting Station
Overcast Overcast  
Wind Chill: 73°   Ceiling: 10000
Heat Index: 73°   Visibility: 6mi
Dew Point: 72°   Wind: 5mph
Humidity: 94%   Direction: 90°E
Pressure: 29.91"   Gusts: NA
Location:  27.33°S, 59.02°W
Report Text: SARE 011300Z 09004KT 9999 FEW006 SCT012 OVC100 23/22 Q1013
Loading
Personal Weather Stations






























Interactive Weather Map
Tropical Storm Tracking
New forecast layout! Learn more

10-Day Weather Forecast

Advertisements
Track Severe Weather on mobile